sensor_id;sensor_type;location;lat;lon;timestamp;P1;durP1;ratioP1;P2;durP2;ratioP2
44862;SDS011;30597;49.628;10.850;2024-01-30T00:01:37;7.37;;;5.93;;
44862;SDS011;30597;49.628;10.850;2024-01-30T00:04:02;7.03;;;6.33;;
44862;SDS011;30597;49.628;10.850;2024-01-30T00:06:28;5.63;;;5.03;;
44862;SDS011;30597;49.628;10.850;2024-01-30T00:08:53;6.43;;;5.90;;
44862;SDS011;30597;49.628;10.850;2024-01-30T00:11:19;6.90;;;6.37;;
44862;SDS011;30597;49.628;10.850;2024-01-30T00:13:45;7.40;;;5.63;;
44862;SDS011;30597;49.628;10.850;2024-01-30T00:16:20;7.43;;;6.73;;
44862;SDS011;30597;49.628;10.850;2024-01-30T00:18:46;6.20;;;5.70;;
44862;SDS011;30597;49.628;10.850;2024-01-30T00:21:12;7.33;;;6.13;;
44862;SDS011;30597;49.628;10.850;2024-01-30T00:23:38;7.40;;;6.17;;
44862;SDS011;30597;49.628;10.850;2024-01-30T00:26:03;8.20;;;7.40;;
44862;SDS011;30597;49.628;10.850;2024-01-30T00:28:30;7.33;;;6.63;;
44862;SDS011;30597;49.628;10.850;2024-01-30T00:30:55;7.70;;;7.00;;
44862;SDS011;30597;49.628;10.850;2024-01-30T00:33:21;7.27;;;6.53;;
44862;SDS011;30597;49.628;10.850;2024-01-30T00:35:46;7.17;;;6.40;;
44862;SDS011;30597;49.628;10.850;2024-01-30T00:38:12;7.10;;;6.33;;
44862;SDS011;30597;49.628;10.850;2024-01-30T00:40:37;7.53;;;6.83;;
44862;SDS011;30597;49.628;10.850;2024-01-30T00:43:03;7.80;;;7.10;;
44862;SDS011;30597;49.628;10.850;2024-01-30T00:45:29;7.17;;;6.57;;
44862;SDS011;30597;49.628;10.850;2024-01-30T00:47:54;7.97;;;6.80;;
44862;SDS011;30597;49.628;10.850;2024-01-30T00:50:20;7.63;;;6.67;;
44862;SDS011;30597;49.628;10.850;2024-01-30T00:52:45;9.20;;;7.50;;
44862;SDS011;30597;49.628;10.850;2024-01-30T00:55:11;8.37;;;7.57;;
44862;SDS011;30597;49.628;10.850;2024-01-30T00:57:36;16.30;;;7.67;;
44862;SDS011;30597;49.628;10.850;2024-01-30T01:00:02;7.80;;;6.80;;
44862;SDS011;30597;49.628;10.850;2024-01-30T01:02:28;8.13;;;7.30;;
44862;SDS011;30597;49.628;10.850;2024-01-30T01:04:54;8.27;;;7.10;;
44862;SDS011;30597;49.628;10.850;2024-01-30T01:07:19;12.37;;;7.30;;
44862;SDS011;30597;49.628;10.850;2024-01-30T01:09:45;8.50;;;7.80;;
44862;SDS011;30597;49.628;10.850;2024-01-30T01:12:10;8.13;;;7.33;;
44862;SDS011;30597;49.628;10.850;2024-01-30T01:14:36;7.57;;;6.87;;
44862;SDS011;30597;49.628;10.850;2024-01-30T01:17:01;7.90;;;7.20;;
44862;SDS011;30597;49.628;10.850;2024-01-30T01:19:27;8.60;;;7.77;;
44862;SDS011;30597;49.628;10.850;2024-01-30T01:21:52;7.50;;;6.87;;
44862;SDS011;30597;49.628;10.850;2024-01-30T01:24:18;8.27;;;7.47;;
44862;SDS011;30597;49.628;10.850;2024-01-30T01:26:43;7.83;;;7.13;;
44862;SDS011;30597;49.628;10.850;2024-01-30T01:29:09;8.00;;;7.20;;
44862;SDS011;30597;49.628;10.850;2024-01-30T01:31:36;7.30;;;6.70;;
44862;SDS011;30597;49.628;10.850;2024-01-30T01:34:08;8.30;;;6.87;;
44862;SDS011;30597;49.628;10.850;2024-01-30T01:36:34;8.70;;;7.90;;
44862;SDS011;30597;49.628;10.850;2024-01-30T01:39:00;6.73;;;6.13;;
44862;SDS011;30597;49.628;10.850;2024-01-30T01:41:29;8.27;;;7.23;;
44862;SDS011;30597;49.628;10.850;2024-01-30T01:43:58;7.73;;;7.03;;
44862;SDS011;30597;49.628;10.850;2024-01-30T01:46:26;8.13;;;7.33;;
44862;SDS011;30597;49.628;10.850;2024-01-30T01:48:52;8.73;;;7.00;;
44862;SDS011;30597;49.628;10.850;2024-01-30T01:51:18;7.93;;;7.23;;
44862;SDS011;30597;49.628;10.850;2024-01-30T01:53:44;7.27;;;6.57;;
44862;SDS011;30597;49.628;10.850;2024-01-30T01:56:10;7.53;;;6.83;;
44862;SDS011;30597;49.628;10.850;2024-01-30T01:58:36;9.33;;;7.10;;
44862;SDS011;30597;49.628;10.850;2024-01-30T02:01:02;7.23;;;6.60;;
44862;SDS011;30597;49.628;10.850;2024-01-30T02:03:30;7.70;;;6.70;;
44862;SDS011;30597;49.628;10.850;2024-01-30T02:05:55;7.20;;;6.50;;
44862;SDS011;30597;49.628;10.850;2024-01-30T02:08:22;7.87;;;7.17;;
44862;SDS011;30597;49.628;10.850;2024-01-30T02:10:48;7.80;;;7.10;;
44862;SDS011;30597;49.628;10.850;2024-01-30T02:13:14;7.13;;;6.43;;
44862;SDS011;30597;49.628;10.850;2024-01-30T02:15:39;8.10;;;7.20;;
44862;SDS011;30597;49.628;10.850;2024-01-30T02:18:05;6.07;;;5.57;;
44862;SDS011;30597;49.628;10.850;2024-01-30T02:20:30;6.90;;;6.30;;
44862;SDS011;30597;49.628;10.850;2024-01-30T02:22:59;7.60;;;6.90;;
44862;SDS011;30597;49.628;10.850;2024-01-30T02:25:33;7.73;;;7.03;;
44862;SDS011;30597;49.628;10.850;2024-01-30T02:28:01;6.50;;;5.90;;
44862;SDS011;30597;49.628;10.850;2024-01-30T02:30:27;8.80;;;6.77;;
44862;SDS011;30597;49.628;10.850;2024-01-30T02:32:52;6.93;;;6.33;;
44862;SDS011;30597;49.628;10.850;2024-01-30T02:35:18;6.10;;;5.60;;
44862;SDS011;30597;49.628;10.850;2024-01-30T02:37:43;7.07;;;6.37;;
44862;SDS011;30597;49.628;10.850;2024-01-30T02:40:09;6.43;;;5.93;;
44862;SDS011;30597;49.628;10.850;2024-01-30T02:42:34;7.20;;;6.50;;
44862;SDS011;30597;49.628;10.850;2024-01-30T02:45:00;8.50;;;7.70;;
44862;SDS011;30597;49.628;10.850;2024-01-30T02:47:25;7.10;;;6.50;;
44862;SDS011;30597;49.628;10.850;2024-01-30T02:49:51;7.60;;;6.90;;
44862;SDS011;30597;49.628;10.850;2024-01-30T02:52:16;6.97;;;6.37;;
44862;SDS011;30597;49.628;10.850;2024-01-30T02:54:42;6.73;;;6.13;;
44862;SDS011;30597;49.628;10.850;2024-01-30T02:57:07;6.93;;;6.23;;
44862;SDS011;30597;49.628;10.850;2024-01-30T02:59:33;6.60;;;6.00;;
44862;SDS011;30597;49.628;10.850;2024-01-30T03:02:00;6.57;;;5.90;;
44862;SDS011;30597;49.628;10.850;2024-01-30T03:04:26;7.70;;;7.00;;
44862;SDS011;30597;49.628;10.850;2024-01-30T03:06:51;6.40;;;5.80;;
44862;SDS011;30597;49.628;10.850;2024-01-30T03:09:17;7.40;;;6.70;;
44862;SDS011;30597;49.628;10.850;2024-01-30T03:11:43;6.10;;;5.50;;
44862;SDS011;30597;49.628;10.850;2024-01-30T03:14:09;7.40;;;6.70;;
44862;SDS011;30597;49.628;10.850;2024-01-30T03:16:36;6.63;;;5.93;;
44862;SDS011;30597;49.628;10.850;2024-01-30T03:19:02;6.70;;;6.07;;
44862;SDS011;30597;49.628;10.850;2024-01-30T03:21:28;6.20;;;5.60;;
44862;SDS011;30597;49.628;10.850;2024-01-30T03:23:54;8.00;;;6.57;;
44862;SDS011;30597;49.628;10.850;2024-01-30T03:26:19;7.53;;;6.73;;
44862;SDS011;30597;49.628;10.850;2024-01-30T03:28:45;6.00;;;5.50;;
44862;SDS011;30597;49.628;10.850;2024-01-30T03:31:12;7.03;;;6.33;;
44862;SDS011;30597;49.628;10.850;2024-01-30T03:33:39;7.03;;;6.43;;
44862;SDS011;30597;49.628;10.850;2024-01-30T03:36:05;6.47;;;5.87;;
44862;SDS011;30597;49.628;10.850;2024-01-30T03:38:30;6.20;;;5.60;;
44862;SDS011;30597;49.628;10.850;2024-01-30T03:40:57;6.17;;;5.63;;
44862;SDS011;30597;49.628;10.850;2024-01-30T03:43:24;6.20;;;5.67;;
44862;SDS011;30597;49.628;10.850;2024-01-30T03:45:49;6.57;;;6.07;;
44862;SDS011;30597;49.628;10.850;2024-01-30T03:48:15;8.07;;;6.10;;
44862;SDS011;30597;49.628;10.850;2024-01-30T03:50:40;5.63;;;5.13;;
44862;SDS011;30597;49.628;10.850;2024-01-30T03:53:06;6.73;;;6.03;;
44862;SDS011;30597;49.628;10.850;2024-01-30T03:55:31;7.33;;;6.67;;
44862;SDS011;30597;49.628;10.850;2024-01-30T03:57:57;6.33;;;5.83;;
44862;SDS011;30597;49.628;10.850;2024-01-30T04:00:23;5.13;;;4.67;;
44862;SDS011;30597;49.628;10.850;2024-01-30T04:02:48;5.80;;;5.30;;
44862;SDS011;30597;49.628;10.850;2024-01-30T04:05:16;5.67;;;5.27;;
44862;SDS011;30597;49.628;10.850;2024-01-30T04:07:41;6.63;;;6.00;;
44862;SDS011;30597;49.628;10.850;2024-01-30T04:10:07;6.20;;;5.60;;
44862;SDS011;30597;49.628;10.850;2024-01-30T04:12:34;6.00;;;5.50;;
44862;SDS011;30597;49.628;10.850;2024-01-30T04:15:00;5.63;;;5.13;;
44862;SDS011;30597;49.628;10.850;2024-01-30T04:17:26;5.77;;;5.27;;
44862;SDS011;30597;49.628;10.850;2024-01-30T04:19:53;6.37;;;5.87;;
44862;SDS011;30597;49.628;10.850;2024-01-30T04:22:20;5.87;;;5.37;;
44862;SDS011;30597;49.628;10.850;2024-01-30T04:24:45;5.20;;;4.70;;
44862;SDS011;30597;49.628;10.850;2024-01-30T04:27:11;5.77;;;5.17;;
44862;SDS011;30597;49.628;10.850;2024-01-30T04:29:36;5.07;;;4.60;;
44862;SDS011;30597;49.628;10.850;2024-01-30T04:32:02;5.77;;;5.23;;
44862;SDS011;30597;49.628;10.850;2024-01-30T04:34:27;5.83;;;5.33;;
44862;SDS011;30597;49.628;10.850;2024-01-30T04:36:53;5.40;;;4.90;;
44862;SDS011;30597;49.628;10.850;2024-01-30T04:39:18;5.90;;;5.40;;
44862;SDS011;30597;49.628;10.850;2024-01-30T04:41:44;5.73;;;5.23;;
44862;SDS011;30597;49.628;10.850;2024-01-30T04:44:09;5.93;;;5.40;;
44862;SDS011;30597;49.628;10.850;2024-01-30T04:46:35;5.17;;;4.77;;
44862;SDS011;30597;49.628;10.850;2024-01-30T04:49:00;5.97;;;5.53;;
44862;SDS011;30597;49.628;10.850;2024-01-30T04:51:26;5.77;;;5.27;;
44862;SDS011;30597;49.628;10.850;2024-01-30T04:53:51;5.67;;;5.17;;
44862;SDS011;30597;49.628;10.850;2024-01-30T04:56:17;5.20;;;4.80;;
44862;SDS011;30597;49.628;10.850;2024-01-30T04:58:43;5.50;;;5.00;;
44862;SDS011;30597;49.628;10.850;2024-01-30T05:01:08;5.33;;;4.93;;
44862;SDS011;30597;49.628;10.850;2024-01-30T05:03:34;4.97;;;4.47;;
44862;SDS011;30597;49.628;10.850;2024-01-30T05:06:00;4.97;;;4.57;;
44862;SDS011;30597;49.628;10.850;2024-01-30T05:08:25;4.80;;;4.40;;
44862;SDS011;30597;49.628;10.850;2024-01-30T05:10:51;5.60;;;5.10;;
44862;SDS011;30597;49.628;10.850;2024-01-30T05:13:16;4.50;;;4.10;;
44862;SDS011;30597;49.628;10.850;2024-01-30T05:15:42;5.20;;;4.80;;
44862;SDS011;30597;49.628;10.850;2024-01-30T05:18:07;5.60;;;5.13;;
44862;SDS011;30597;49.628;10.850;2024-01-30T05:20:33;4.73;;;4.33;;
44862;SDS011;30597;49.628;10.850;2024-01-30T05:22:58;5.00;;;4.60;;
44862;SDS011;30597;49.628;10.850;2024-01-30T05:25:24;4.90;;;4.40;;
44862;SDS011;30597;49.628;10.850;2024-01-30T05:27:49;5.47;;;5.00;;
44862;SDS011;30597;49.628;10.850;2024-01-30T05:30:15;5.30;;;4.80;;
44862;SDS011;30597;49.628;10.850;2024-01-30T05:32:40;4.40;;;4.00;;
44862;SDS011;30597;49.628;10.850;2024-01-30T05:35:06;5.10;;;4.70;;
44862;SDS011;30597;49.628;10.850;2024-01-30T05:37:33;5.20;;;4.70;;
44862;SDS011;30597;49.628;10.850;2024-01-30T05:39:58;4.43;;;4.10;;
44862;SDS011;30597;49.628;10.850;2024-01-30T05:42:24;5.63;;;5.03;;
44862;SDS011;30597;49.628;10.850;2024-01-30T05:44:50;4.50;;;4.10;;
44862;SDS011;30597;49.628;10.850;2024-01-30T05:47:15;4.80;;;4.40;;
44862;SDS011;30597;49.628;10.850;2024-01-30T05:49:41;4.73;;;4.33;;
44862;SDS011;30597;49.628;10.850;2024-01-30T05:52:07;4.93;;;4.43;;
44862;SDS011;30597;49.628;10.850;2024-01-30T05:54:32;4.70;;;4.30;;
44862;SDS011;30597;49.628;10.850;2024-01-30T05:56:58;5.80;;;5.30;;
44862;SDS011;30597;49.628;10.850;2024-01-30T05:59:24;5.47;;;4.90;;
44862;SDS011;30597;49.628;10.850;2024-01-30T06:01:49;4.40;;;4.10;;
44862;SDS011;30597;49.628;10.850;2024-01-30T06:04:15;5.10;;;4.67;;
44862;SDS011;30597;49.628;10.850;2024-01-30T06:06:41;5.50;;;5.00;;
44862;SDS011;30597;49.628;10.850;2024-01-30T06:09:06;5.07;;;4.63;;
44862;SDS011;30597;49.628;10.850;2024-01-30T06:11:35;5.30;;;4.80;;
44862;SDS011;30597;49.628;10.850;2024-01-30T06:14:00;4.90;;;4.50;;
44862;SDS011;30597;49.628;10.850;2024-01-30T06:16:26;4.53;;;4.13;;
44862;SDS011;30597;49.628;10.850;2024-01-30T06:18:54;4.87;;;4.47;;
44862;SDS011;30597;49.628;10.850;2024-01-30T06:21:20;4.60;;;4.10;;
44862;SDS011;30597;49.628;10.850;2024-01-30T06:23:46;3.80;;;3.50;;
44862;SDS011;30597;49.628;10.850;2024-01-30T06:26:12;4.60;;;4.20;;
44862;SDS011;30597;49.628;10.850;2024-01-30T06:28:37;4.33;;;3.93;;
44862;SDS011;30597;49.628;10.850;2024-01-30T06:31:03;4.70;;;4.30;;
44862;SDS011;30597;49.628;10.850;2024-01-30T06:33:28;5.17;;;4.50;;
44862;SDS011;30597;49.628;10.850;2024-01-30T06:35:54;4.90;;;4.50;;
44862;SDS011;30597;49.628;10.850;2024-01-30T06:38:19;4.97;;;4.53;;
44862;SDS011;30597;49.628;10.850;2024-01-30T06:40:45;5.90;;;4.37;;
44862;SDS011;30597;49.628;10.850;2024-01-30T06:43:10;7.97;;;5.03;;
44862;SDS011;30597;49.628;10.850;2024-01-30T06:45:36;5.90;;;4.70;;
44862;SDS011;30597;49.628;10.850;2024-01-30T06:48:02;7.57;;;5.20;;
44862;SDS011;30597;49.628;10.850;2024-01-30T06:50:28;5.60;;;5.10;;
44862;SDS011;30597;49.628;10.850;2024-01-30T06:52:53;5.23;;;4.73;;
44862;SDS011;30597;49.628;10.850;2024-01-30T06:55:19;6.30;;;5.20;;
44862;SDS011;30597;49.628;10.850;2024-01-30T06:57:44;5.70;;;5.20;;
44862;SDS011;30597;49.628;10.850;2024-01-30T07:00:10;8.70;;;5.67;;
44862;SDS011;30597;49.628;10.850;2024-01-30T07:02:36;6.30;;;5.77;;
44862;SDS011;30597;49.628;10.850;2024-01-30T07:05:02;6.80;;;5.37;;
44862;SDS011;30597;49.628;10.850;2024-01-30T07:07:28;6.80;;;6.20;;
44862;SDS011;30597;49.628;10.850;2024-01-30T07:09:54;6.07;;;5.47;;
44862;SDS011;30597;49.628;10.850;2024-01-30T07:12:21;5.63;;;5.07;;
44862;SDS011;30597;49.628;10.850;2024-01-30T07:14:49;6.43;;;5.80;;
44862;SDS011;30597;49.628;10.850;2024-01-30T07:17:15;6.20;;;5.60;;
44862;SDS011;30597;49.628;10.850;2024-01-30T07:19:41;5.70;;;5.10;;
44862;SDS011;30597;49.628;10.850;2024-01-30T07:22:06;6.37;;;5.77;;
44862;SDS011;30597;49.628;10.850;2024-01-30T07:24:32;5.77;;;5.27;;
44862;SDS011;30597;49.628;10.850;2024-01-30T07:26:58;6.07;;;5.47;;
44862;SDS011;30597;49.628;10.850;2024-01-30T07:29:23;7.37;;;6.60;;
44862;SDS011;30597;49.628;10.850;2024-01-30T07:31:49;7.47;;;6.73;;
44862;SDS011;30597;49.628;10.850;2024-01-30T07:34:15;7.23;;;6.20;;
44862;SDS011;30597;49.628;10.850;2024-01-30T07:36:40;7.03;;;6.43;;
44862;SDS011;30597;49.628;10.850;2024-01-30T07:39:06;7.30;;;6.53;;
44862;SDS011;30597;49.628;10.850;2024-01-30T07:41:31;6.33;;;5.83;;
44862;SDS011;30597;49.628;10.850;2024-01-30T07:43:57;6.83;;;6.23;;
44862;SDS011;30597;49.628;10.850;2024-01-30T07:46:23;7.87;;;7.10;;
44862;SDS011;30597;49.628;10.850;2024-01-30T07:48:48;7.23;;;6.60;;
44862;SDS011;30597;49.628;10.850;2024-01-30T07:51:14;7.20;;;6.47;;
44862;SDS011;30597;49.628;10.850;2024-01-30T07:53:39;7.17;;;6.47;;
44862;SDS011;30597;49.628;10.850;2024-01-30T07:56:05;6.10;;;5.60;;
44862;SDS011;30597;49.628;10.850;2024-01-30T07:58:31;6.53;;;6.03;;
44862;SDS011;30597;49.628;10.850;2024-01-30T08:00:56;5.97;;;5.47;;
44862;SDS011;30597;49.628;10.850;2024-01-30T08:03:23;6.80;;;6.20;;
44862;SDS011;30597;49.628;10.850;2024-01-30T08:05:49;7.20;;;6.50;;
44862;SDS011;30597;49.628;10.850;2024-01-30T08:08:14;6.50;;;6.00;;
44862;SDS011;30597;49.628;10.850;2024-01-30T08:10:40;6.53;;;5.93;;
44862;SDS011;30597;49.628;10.850;2024-01-30T08:13:06;6.10;;;5.50;;
44862;SDS011;30597;49.628;10.850;2024-01-30T08:15:33;7.43;;;6.73;;
44862;SDS011;30597;49.628;10.850;2024-01-30T08:17:58;6.47;;;5.87;;
44862;SDS011;30597;49.628;10.850;2024-01-30T08:20:24;6.97;;;6.27;;
44862;SDS011;30597;49.628;10.850;2024-01-30T08:22:50;6.70;;;6.17;;
44862;SDS011;30597;49.628;10.850;2024-01-30T08:25:16;6.87;;;6.20;;
44862;SDS011;30597;49.628;10.850;2024-01-30T08:27:41;6.00;;;5.50;;
44862;SDS011;30597;49.628;10.850;2024-01-30T08:30:07;6.77;;;6.10;;
44862;SDS011;30597;49.628;10.850;2024-01-30T08:32:33;7.70;;;5.97;;
44862;SDS011;30597;49.628;10.850;2024-01-30T08:34:59;6.00;;;5.53;;
44862;SDS011;30597;49.628;10.850;2024-01-30T08:37:24;5.77;;;5.33;;
44862;SDS011;30597;49.628;10.850;2024-01-30T08:39:50;6.33;;;5.83;;
44862;SDS011;30597;49.628;10.850;2024-01-30T08:42:15;6.57;;;5.97;;
44862;SDS011;30597;49.628;10.850;2024-01-30T08:44:43;6.23;;;5.63;;
44862;SDS011;30597;49.628;10.850;2024-01-30T08:47:09;6.43;;;5.83;;
44862;SDS011;30597;49.628;10.850;2024-01-30T08:49:34;6.33;;;5.80;;
44862;SDS011;30597;49.628;10.850;2024-01-30T08:52:00;6.50;;;6.00;;
44862;SDS011;30597;49.628;10.850;2024-01-30T08:54:25;6.50;;;6.00;;
44862;SDS011;30597;49.628;10.850;2024-01-30T08:56:51;6.17;;;5.67;;
44862;SDS011;30597;49.628;10.850;2024-01-30T08:59:18;5.70;;;5.20;;
44862;SDS011;30597;49.628;10.850;2024-01-30T09:01:44;6.10;;;5.60;;
44862;SDS011;30597;49.628;10.850;2024-01-30T09:04:10;6.63;;;5.93;;
44862;SDS011;30597;49.628;10.850;2024-01-30T09:06:35;6.80;;;6.20;;
44862;SDS011;30597;49.628;10.850;2024-01-30T09:09:01;6.77;;;6.07;;
44862;SDS011;30597;49.628;10.850;2024-01-30T09:11:26;6.40;;;5.90;;
44862;SDS011;30597;49.628;10.850;2024-01-30T09:13:52;6.17;;;5.53;;
44862;SDS011;30597;49.628;10.850;2024-01-30T09:16:17;5.93;;;5.43;;
44862;SDS011;30597;49.628;10.850;2024-01-30T09:18:43;5.97;;;5.43;;
44862;SDS011;30597;49.628;10.850;2024-01-30T09:21:08;6.50;;;5.90;;
44862;SDS011;30597;49.628;10.850;2024-01-30T09:23:35;6.63;;;6.03;;
44862;SDS011;30597;49.628;10.850;2024-01-30T09:26:00;8.30;;;6.53;;
44862;SDS011;30597;49.628;10.850;2024-01-30T09:28:26;6.83;;;6.17;;
44862;SDS011;30597;49.628;10.850;2024-01-30T09:30:52;6.13;;;5.53;;
44862;SDS011;30597;49.628;10.850;2024-01-30T09:33:17;5.97;;;5.33;;
44862;SDS011;30597;49.628;10.850;2024-01-30T09:35:43;5.90;;;5.30;;
44862;SDS011;30597;49.628;10.850;2024-01-30T09:38:08;6.30;;;5.70;;
44862;SDS011;30597;49.628;10.850;2024-01-30T09:40:34;5.80;;;5.20;;
44862;SDS011;30597;49.628;10.850;2024-01-30T09:42:59;5.10;;;4.60;;
44862;SDS011;30597;49.628;10.850;2024-01-30T09:45:25;6.53;;;5.50;;
44862;SDS011;30597;49.628;10.850;2024-01-30T09:47:51;6.17;;;5.57;;
44862;SDS011;30597;49.628;10.850;2024-01-30T09:50:18;7.17;;;5.73;;
44862;SDS011;30597;49.628;10.850;2024-01-30T09:52:44;5.63;;;4.90;;
44862;SDS011;30597;49.628;10.850;2024-01-30T09:55:10;5.87;;;5.30;;
44862;SDS011;30597;49.628;10.850;2024-01-30T09:57:36;6.37;;;5.50;;
44862;SDS011;30597;49.628;10.850;2024-01-30T10:00:02;6.70;;;6.00;;
44862;SDS011;30597;49.628;10.850;2024-01-30T10:02:29;6.70;;;4.93;;
44862;SDS011;30597;49.628;10.850;2024-01-30T10:04:56;5.60;;;5.10;;
44862;SDS011;30597;49.628;10.850;2024-01-30T10:07:21;6.10;;;5.50;;
44862;SDS011;30597;49.628;10.850;2024-01-30T10:09:48;5.30;;;4.80;;
44862;SDS011;30597;49.628;10.850;2024-01-30T10:12:14;9.50;;;6.00;;
44862;SDS011;30597;49.628;10.850;2024-01-30T10:14:40;5.23;;;4.73;;
44862;SDS011;30597;49.628;10.850;2024-01-30T10:17:07;5.57;;;4.90;;
44862;SDS011;30597;49.628;10.850;2024-01-30T10:19:37;5.60;;;5.10;;
44862;SDS011;30597;49.628;10.850;2024-01-30T10:22:03;6.07;;;5.57;;
44862;SDS011;30597;49.628;10.850;2024-01-30T10:24:29;5.23;;;4.80;;
44862;SDS011;30597;49.628;10.850;2024-01-30T10:26:55;5.97;;;5.10;;
44862;SDS011;30597;49.628;10.850;2024-01-30T10:29:21;6.07;;;5.47;;
44862;SDS011;30597;49.628;10.850;2024-01-30T10:31:57;5.87;;;4.93;;
44862;SDS011;30597;49.628;10.850;2024-01-30T10:34:23;4.90;;;4.47;;
44862;SDS011;30597;49.628;10.850;2024-01-30T10:36:50;5.93;;;4.63;;
44862;SDS011;30597;49.628;10.850;2024-01-30T10:39:19;6.10;;;5.50;;
44862;SDS011;30597;49.628;10.850;2024-01-30T10:41:46;6.10;;;5.40;;
44862;SDS011;30597;49.628;10.850;2024-01-30T10:44:13;5.50;;;5.00;;
44862;SDS011;30597;49.628;10.850;2024-01-30T10:46:44;4.87;;;4.43;;
44862;SDS011;30597;49.628;10.850;2024-01-30T10:49:14;5.43;;;4.20;;
44862;SDS011;30597;49.628;10.850;2024-01-30T10:51:41;5.43;;;4.70;;
44862;SDS011;30597;49.628;10.850;2024-01-30T10:54:07;4.90;;;4.20;;
44862;SDS011;30597;49.628;10.850;2024-01-30T10:56:34;5.63;;;4.80;;
44862;SDS011;30597;49.628;10.850;2024-01-30T10:59:00;5.23;;;4.37;;
44862;SDS011;30597;49.628;10.850;2024-01-30T11:01:26;4.63;;;4.20;;
44862;SDS011;30597;49.628;10.850;2024-01-30T11:03:53;4.70;;;4.30;;
44862;SDS011;30597;49.628;10.850;2024-01-30T11:06:22;5.00;;;4.60;;
44862;SDS011;30597;49.628;10.850;2024-01-30T11:09:02;5.60;;;5.10;;
44862;SDS011;30597;49.628;10.850;2024-01-30T11:11:29;5.10;;;4.60;;
44862;SDS011;30597;49.628;10.850;2024-01-30T11:13:54;4.40;;;4.00;;
44862;SDS011;30597;49.628;10.850;2024-01-30T11:16:20;4.63;;;4.23;;
44862;SDS011;30597;49.628;10.850;2024-01-30T11:18:49;4.50;;;4.10;;
44862;SDS011;30597;49.628;10.850;2024-01-30T11:21:18;4.73;;;4.33;;
44862;SDS011;30597;49.628;10.850;2024-01-30T11:23:44;6.10;;;5.03;;
44862;SDS011;30597;49.628;10.850;2024-01-30T11:26:10;5.53;;;5.03;;
44862;SDS011;30597;49.628;10.850;2024-01-30T11:28:36;4.63;;;4.13;;
44862;SDS011;30597;49.628;10.850;2024-01-30T11:31:06;5.03;;;4.57;;
44862;SDS011;30597;49.628;10.850;2024-01-30T11:33:32;4.97;;;4.53;;
44862;SDS011;30597;49.628;10.850;2024-01-30T11:35:58;4.03;;;3.73;;
44862;SDS011;30597;49.628;10.850;2024-01-30T11:38:25;4.50;;;4.10;;
44862;SDS011;30597;49.628;10.850;2024-01-30T11:40:52;4.90;;;4.40;;
44862;SDS011;30597;49.628;10.850;2024-01-30T11:43:19;4.17;;;3.77;;
44862;SDS011;30597;49.628;10.850;2024-01-30T11:45:45;4.67;;;4.27;;
44862;SDS011;30597;49.628;10.850;2024-01-30T11:48:11;4.80;;;4.17;;
44862;SDS011;30597;49.628;10.850;2024-01-30T11:50:37;4.30;;;4.00;;
44862;SDS011;30597;49.628;10.850;2024-01-30T11:53:04;4.50;;;4.10;;
44862;SDS011;30597;49.628;10.850;2024-01-30T11:55:30;4.90;;;4.40;;
44862;SDS011;30597;49.628;10.850;2024-01-30T11:57:56;5.53;;;4.20;;
44862;SDS011;30597;49.628;10.850;2024-01-30T12:00:22;4.50;;;4.10;;
44862;SDS011;30597;49.628;10.850;2024-01-30T12:02:51;4.90;;;4.50;;
44862;SDS011;30597;49.628;10.850;2024-01-30T12:05:20;6.23;;;5.67;;
44862;SDS011;30597;49.628;10.850;2024-01-30T12:07:46;5.10;;;4.60;;
44862;SDS011;30597;49.628;10.850;2024-01-30T12:10:12;11.30;;;8.93;;
44862;SDS011;30597;49.628;10.850;2024-01-30T12:12:39;13.67;;;11.17;;
44862;SDS011;30597;49.628;10.850;2024-01-30T12:15:06;11.93;;;10.73;;
44862;SDS011;30597;49.628;10.850;2024-01-30T12:17:32;11.17;;;10.07;;
44862;SDS011;30597;49.628;10.850;2024-01-30T12:20:02;12.63;;;10.03;;
44862;SDS011;30597;49.628;10.850;2024-01-30T12:22:29;17.90;;;10.47;;
44862;SDS011;30597;49.628;10.850;2024-01-30T12:24:55;12.90;;;9.37;;
44862;SDS011;30597;49.628;10.850;2024-01-30T12:27:20;13.17;;;9.90;;
44862;SDS011;30597;49.628;10.850;2024-01-30T12:29:46;12.00;;;9.33;;
44862;SDS011;30597;49.628;10.850;2024-01-30T12:32:15;12.10;;;9.80;;
44862;SDS011;30597;49.628;10.850;2024-01-30T12:34:41;11.13;;;9.70;;
44862;SDS011;30597;49.628;10.850;2024-01-30T12:37:07;12.30;;;9.43;;
44862;SDS011;30597;49.628;10.850;2024-01-30T12:39:34;12.70;;;9.00;;
44862;SDS011;30597;49.628;10.850;2024-01-30T12:42:00;10.90;;;9.00;;
44862;SDS011;30597;49.628;10.850;2024-01-30T12:44:26;9.20;;;8.30;;
44862;SDS011;30597;49.628;10.850;2024-01-30T12:46:52;10.80;;;9.50;;
44862;SDS011;30597;49.628;10.850;2024-01-30T12:49:17;10.10;;;8.43;;
44862;SDS011;30597;49.628;10.850;2024-01-30T12:51:43;10.73;;;9.50;;
44862;SDS011;30597;49.628;10.850;2024-01-30T12:54:08;10.97;;;9.87;;
44862;SDS011;30597;49.628;10.850;2024-01-30T12:56:34;10.90;;;9.40;;
44862;SDS011;30597;49.628;10.850;2024-01-30T12:58:59;9.43;;;8.43;;
44862;SDS011;30597;49.628;10.850;2024-01-30T13:01:25;10.13;;;9.23;;
44862;SDS011;30597;49.628;10.850;2024-01-30T13:03:50;9.90;;;8.37;;
44862;SDS011;30597;49.628;10.850;2024-01-30T13:06:17;9.73;;;8.73;;
44862;SDS011;30597;49.628;10.850;2024-01-30T13:08:42;10.13;;;9.10;;
44862;SDS011;30597;49.628;10.850;2024-01-30T13:11:08;12.30;;;10.47;;
44862;SDS011;30597;49.628;10.850;2024-01-30T13:13:33;11.50;;;10.00;;
44862;SDS011;30597;49.628;10.850;2024-01-30T13:16:00;11.70;;;9.30;;
44862;SDS011;30597;49.628;10.850;2024-01-30T13:18:26;10.40;;;9.40;;
44862;SDS011;30597;49.628;10.850;2024-01-30T13:20:51;10.33;;;9.30;;
44862;SDS011;30597;49.628;10.850;2024-01-30T13:23:17;9.83;;;8.83;;
44862;SDS011;30597;49.628;10.850;2024-01-30T13:25:43;9.53;;;8.63;;
44862;SDS011;30597;49.628;10.850;2024-01-30T13:28:08;9.33;;;8.43;;
44862;SDS011;30597;49.628;10.850;2024-01-30T13:30:34;9.63;;;8.67;;
44862;SDS011;30597;49.628;10.850;2024-01-30T13:32:59;10.57;;;9.70;;
44862;SDS011;30597;49.628;10.850;2024-01-30T13:35:24;10.23;;;8.70;;
44862;SDS011;30597;49.628;10.850;2024-01-30T13:37:50;9.00;;;8.10;;
44862;SDS011;30597;49.628;10.850;2024-01-30T13:40:15;12.00;;;8.10;;
44862;SDS011;30597;49.628;10.850;2024-01-30T13:42:41;9.17;;;8.23;;
44862;SDS011;30597;49.628;10.850;2024-01-30T13:45:07;9.57;;;8.63;;
44862;SDS011;30597;49.628;10.850;2024-01-30T13:47:34;8.03;;;7.23;;
44862;SDS011;30597;49.628;10.850;2024-01-30T13:50:00;8.23;;;7.37;;
44862;SDS011;30597;49.628;10.850;2024-01-30T13:52:25;9.23;;;8.33;;
44862;SDS011;30597;49.628;10.850;2024-01-30T13:54:52;8.70;;;7.90;;
44862;SDS011;30597;49.628;10.850;2024-01-30T13:57:17;7.57;;;6.87;;
44862;SDS011;30597;49.628;10.850;2024-01-30T13:59:43;8.83;;;7.93;;
44862;SDS011;30597;49.628;10.850;2024-01-30T14:02:08;8.63;;;7.83;;
44862;SDS011;30597;49.628;10.850;2024-01-30T14:04:35;9.10;;;8.20;;
44862;SDS011;30597;49.628;10.850;2024-01-30T14:07:02;8.23;;;7.40;;
44862;SDS011;30597;49.628;10.850;2024-01-30T14:09:28;8.50;;;7.50;;
44862;SDS011;30597;49.628;10.850;2024-01-30T14:11:54;7.87;;;6.33;;
44862;SDS011;30597;49.628;10.850;2024-01-30T14:14:20;9.10;;;7.40;;
44862;SDS011;30597;49.628;10.850;2024-01-30T14:16:45;7.40;;;6.70;;
44862;SDS011;30597;49.628;10.850;2024-01-30T14:19:11;7.60;;;6.90;;
44862;SDS011;30597;49.628;10.850;2024-01-30T14:21:36;7.73;;;7.03;;
44862;SDS011;30597;49.628;10.850;2024-01-30T14:24:02;8.03;;;7.27;;
44862;SDS011;30597;49.628;10.850;2024-01-30T14:26:28;8.60;;;7.40;;